sensor_id;sensor_type;location;lat;lon;timestamp;pressure;altitude;pressure_sealevel;temperature;humidity
13478;BME280;12598;62.382;17.344;2022-09-12T00:00:30;101445.38;;;25.21;29.02
13478;BME280;12598;62.382;17.344;2022-09-12T00:01:35;101441.66;;;25.22;29.29
13478;BME280;12598;62.382;17.344;2022-09-12T00:02:37;101439.97;;;25.21;29.64
13478;BME280;12598;62.382;17.344;2022-09-12T00:03:40;101436.78;;;25.18;29.32
13478;BME280;12598;62.382;17.344;2022-09-12T00:04:41;101435.44;;;25.14;29.61
13478;BME280;12598;62.382;17.344;2022-09-12T00:05:45;101439.50;;;25.18;29.39
13478;BME280;12598;62.382;17.344;2022-09-12T00:06:47;101440.16;;;25.20;29.32
13478;BME280;12598;62.382;17.344;2022-09-12T00:07:49;101431.84;;;25.13;29.43
13478;BME280;12598;62.382;17.344;2022-09-12T00:08:56;101443.22;;;25.17;29.25
13478;BME280;12598;62.382;17.344;2022-09-12T00:09:58;101444.06;;;25.17;29.70
13478;BME280;12598;62.382;17.344;2022-09-12T00:11:03;101421.44;;;25.02;29.30
13478;BME280;12598;62.382;17.344;2022-09-12T00:12:05;101440.31;;;25.18;29.15
13478;BME280;12598;62.382;17.344;2022-09-12T00:13:08;101442.34;;;25.16;29.63
13478;BME280;12598;62.382;17.344;2022-09-12T00:14:14;101441.50;;;25.16;29.82
13478;BME280;12598;62.382;17.344;2022-09-12T00:15:16;101446.91;;;25.16;29.36
13478;BME280;12598;62.382;17.344;2022-09-12T00:16:21;101441.84;;;25.13;29.44
13478;BME280;12598;62.382;17.344;2022-09-12T00:17:23;101438.13;;;25.14;29.72
13478;BME280;12598;62.382;17.344;2022-09-12T00:18:25;101442.88;;;25.12;29.46
13478;BME280;12598;62.382;17.344;2022-09-12T00:19:27;101439.31;;;25.11;29.46
13478;BME280;12598;62.382;17.344;2022-09-12T00:20:29;101425.63;;;25.05;29.69
13478;BME280;12598;62.382;17.344;2022-09-12T00:21:33;101433.06;;;25.11;29.54
13478;BME280;12598;62.382;17.344;2022-09-12T00:22:35;101441.19;;;25.11;29.72
13478;BME280;12598;62.382;17.344;2022-09-12T00:23:37;101431.72;;;25.07;29.20
13478;BME280;12598;62.382;17.344;2022-09-12T00:24:39;101439.50;;;25.10;29.47
13478;BME280;12598;62.382;17.344;2022-09-12T00:25:46;101437.78;;;25.09;29.28
13478;BME280;12598;62.382;17.344;2022-09-12T00:26:48;101434.25;;;25.08;29.36
13478;BME280;12598;62.382;17.344;2022-09-12T00:27:50;101442.22;;;25.10;29.38
13478;BME280;12598;62.382;17.344;2022-09-12T00:28:52;101433.41;;;25.08;29.75
13478;BME280;12598;62.382;17.344;2022-09-12T00:29:53;101438.00;;;25.07;29.82
13478;BME280;12598;62.382;17.344;2022-09-12T00:30:55;101436.09;;;25.08;29.76
13478;BME280;12598;62.382;17.344;2022-09-12T00:31:57;101433.41;;;25.08;29.78
13478;BME280;12598;62.382;17.344;2022-09-12T00:32:59;101430.88;;;25.06;29.13
13478;BME280;12598;62.382;17.344;2022-09-12T00:34:01;101426.50;;;25.05;29.44
13478;BME280;12598;62.382;17.344;2022-09-12T00:35:03;101425.47;;;25.06;29.69
13478;BME280;12598;62.382;17.344;2022-09-12T00:36:08;101433.75;;;25.05;29.88
13478;BME280;12598;62.382;17.344;2022-09-12T00:37:10;101431.72;;;25.07;29.31
13478;BME280;12598;62.382;17.344;2022-09-12T00:38:13;101428.34;;;25.05;29.54
13478;BME280;12598;62.382;17.344;2022-09-12T00:39:16;101428.34;;;25.05;29.33
13478;BME280;12598;62.382;17.344;2022-09-12T00:40:18;101431.06;;;25.05;29.23
13478;BME280;12598;62.382;17.344;2022-09-12T00:41:27;101423.13;;;25.03;29.31
13478;BME280;12598;62.382;17.344;2022-09-12T00:42:29;101429.19;;;25.05;29.53
13478;BME280;12598;62.382;17.344;2022-09-12T00:43:45;101423.78;;;25.05;29.55
13478;BME280;12598;62.382;17.344;2022-09-12T00:44:50;101420.06;;;25.06;29.26
13478;BME280;12598;62.382;17.344;2022-09-12T00:45:52;101417.53;;;25.05;29.44
13478;BME280;12598;62.382;17.344;2022-09-12T00:47:16;101418.84;;;25.09;29.21
13478;BME280;12598;62.382;17.344;2022-09-12T00:48:30;101417.16;;;25.08;29.63
13478;BME280;12598;62.382;17.344;2022-09-12T00:50:43;101414.66;;;25.06;29.66
13478;BME280;12598;62.382;17.344;2022-09-12T00:51:51;101420.41;;;25.03;29.26
13478;BME280;12598;62.382;17.344;2022-09-12T00:53:06;101416.50;;;25.06;29.17
13478;BME280;12598;62.382;17.344;2022-09-12T00:54:12;101403.31;;;25.03;29.23
13478;BME280;12598;62.382;17.344;2022-09-12T00:55:26;101410.41;;;25.04;29.21
13478;BME280;12598;62.382;17.344;2022-09-12T00:56:29;101403.22;;;24.96;29.35
13478;BME280;12598;62.382;17.344;2022-09-12T00:57:35;101408.25;;;24.99;29.33
13478;BME280;12598;62.382;17.344;2022-09-12T00:58:55;101411.78;;;25.00;29.74
13478;BME280;12598;62.382;17.344;2022-09-12T01:00:09;101406.38;;;25.00;29.62
13478;BME280;12598;62.382;17.344;2022-09-12T01:01:26;101367.56;;;24.85;29.53
13478;BME280;12598;62.382;17.344;2022-09-12T01:02:33;101406.03;;;25.03;29.68
13478;BME280;12598;62.382;17.344;2022-09-12T01:03:35;101411.78;;;25.00;29.31
13478;BME280;12598;62.382;17.344;2022-09-12T01:04:38;101407.59;;;24.97;29.61
13478;BME280;12598;62.382;17.344;2022-09-12T01:05:45;101412.34;;;24.95;29.41
13478;BME280;12598;62.382;17.344;2022-09-12T01:06:48;101408.63;;;24.96;29.79
13478;BME280;12598;62.382;17.344;2022-09-12T01:07:51;101411.50;;;24.95;29.43
13478;BME280;12598;62.382;17.344;2022-09-12T01:08:54;101400.66;;;24.95;29.41
13478;BME280;12598;62.382;17.344;2022-09-12T01:09:57;101406.06;;;24.95;28.96
13478;BME280;12598;62.382;17.344;2022-09-12T01:10:58;101404.38;;;24.94;29.32
13478;BME280;12598;62.382;17.344;2022-09-12T01:12:01;101404.59;;;24.92;29.79
13478;BME280;12598;62.382;17.344;2022-09-12T01:13:09;101393.63;;;24.86;29.51
13478;BME280;12598;62.382;17.344;2022-09-12T01:14:13;101396.63;;;24.91;29.72
13478;BME280;12598;62.382;17.344;2022-09-12T01:15:15;101406.28;;;24.93;29.35
13478;BME280;12598;62.382;17.344;2022-09-12T01:16:17;101398.50;;;24.90;29.46
13478;BME280;12598;62.382;17.344;2022-09-12T01:17:20;101397.66;;;24.90;29.31
13478;BME280;12598;62.382;17.344;2022-09-12T01:20:06;101397.25;;;25.01;29.24
13478;BME280;12598;62.382;17.344;2022-09-12T01:21:41;101386.13;;;24.96;29.42
13478;BME280;12598;62.382;17.344;2022-09-12T01:24:32;101399.59;;;25.04;29.21
13478;BME280;12598;62.382;17.344;2022-09-12T01:27:58;101393.53;;;25.02;29.31
13478;BME280;12598;62.382;17.344;2022-09-12T01:31:33;101396.41;;;25.00;29.70
13478;BME280;12598;62.382;17.344;2022-09-12T01:35:34;101396.13;;;24.95;29.46
13478;BME280;12598;62.382;17.344;2022-09-12T01:38:33;101389.47;;;24.98;29.38
13478;BME280;12598;62.382;17.344;2022-09-12T01:39:51;101377.88;;;24.89;29.70
13478;BME280;12598;62.382;17.344;2022-09-12T01:41:13;101393.41;;;24.95;29.55
13478;BME280;12598;62.382;17.344;2022-09-12T01:42:30;101381.59;;;24.88;29.42
13478;BME280;12598;62.382;17.344;2022-09-12T01:46:18;101393.94;;;24.91;29.63
13478;BME280;12598;62.382;17.344;2022-09-12T01:47:40;101389.53;;;24.90;29.37
13478;BME280;12598;62.382;17.344;2022-09-12T01:49:05;101394.78;;;24.91;29.64
13478;BME280;12598;62.382;17.344;2022-09-12T01:50:24;101395.59;;;24.92;29.59
13478;BME280;12598;62.382;17.344;2022-09-12T01:51:44;101380.44;;;24.83;29.49
13478;BME280;12598;62.382;17.344;2022-09-12T01:53:03;101395.97;;;24.89;29.72
13478;BME280;12598;62.382;17.344;2022-09-12T01:54:13;101405.09;;;24.88;29.41
13478;BME280;12598;62.382;17.344;2022-09-12T01:55:28;101402.41;;;24.88;29.99
13478;BME280;12598;62.382;17.344;2022-09-12T01:56:33;101399.19;;;24.84;29.59
13478;BME280;12598;62.382;17.344;2022-09-12T01:57:44;101391.97;;;24.77;29.84
13478;BME280;12598;62.382;17.344;2022-09-12T01:59:18;101393.94;;;24.91;29.40
13478;BME280;12598;62.382;17.344;2022-09-12T02:00:22;101402.22;;;24.89;29.65
13478;BME280;12598;62.382;17.344;2022-09-12T02:01:30;101391.25;;;24.83;29.97
13478;BME280;12598;62.382;17.344;2022-09-12T02:02:38;101401.41;;;24.81;30.25
13478;BME280;12598;62.382;17.344;2022-09-12T02:04:12;101395.00;;;24.82;29.89
13478;BME280;12598;62.382;17.344;2022-09-12T02:05:19;101385.19;;;24.81;29.42
13478;BME280;12598;62.382;17.344;2022-09-12T02:06:34;101396.31;;;24.86;29.29
13478;BME280;12598;62.382;17.344;2022-09-12T02:07:41;101396.47;;;24.84;29.50
13478;BME280;12598;62.382;17.344;2022-09-12T02:08:52;101379.16;;;24.71;29.83
13478;BME280;12598;62.382;17.344;2022-09-12T02:10:08;101397.84;;;24.80;29.55
13478;BME280;12598;62.382;17.344;2022-09-12T02:11:12;101394.78;;;24.83;29.41
13478;BME280;12598;62.382;17.344;2022-09-12T02:12:19;101383.34;;;24.73;29.90
13478;BME280;12598;62.382;17.344;2022-09-12T02:13:35;101393.47;;;24.79;29.70
13478;BME280;12598;62.382;17.344;2022-09-12T02:14:44;101381.50;;;24.74;29.53
13478;BME280;12598;62.382;17.344;2022-09-12T02:15:55;101387.38;;;24.77;29.87
13478;BME280;12598;62.382;17.344;2022-09-12T02:17:11;101384.53;;;24.79;29.89
13478;BME280;12598;62.382;17.344;2022-09-12T02:18:15;101391.63;;;24.80;30.07
13478;BME280;12598;62.382;17.344;2022-09-12T02:19:24;101385.53;;;24.78;29.99
13478;BME280;12598;62.382;17.344;2022-09-12T02:20:30;101393.66;;;24.78;29.87
13478;BME280;12598;62.382;17.344;2022-09-12T02:21:53;101380.28;;;24.76;29.52
13478;BME280;12598;62.382;17.344;2022-09-12T02:22:56;101382.16;;;24.76;30.01
13478;BME280;12598;62.382;17.344;2022-09-12T02:24:01;101382.16;;;24.76;29.43
13478;BME280;12598;62.382;17.344;2022-09-12T02:25:05;101391.31;;;24.75;30.00
13478;BME280;12598;62.382;17.344;2022-09-12T02:26:18;101387.38;;;24.77;30.11
13478;BME280;12598;62.382;17.344;2022-09-12T02:27:32;101374.41;;;24.73;29.80
13478;BME280;12598;62.382;17.344;2022-09-12T02:28:38;101384.69;;;24.77;29.73
13478;BME280;12598;62.382;17.344;2022-09-12T02:29:42;101386.56;;;24.77;29.94
13478;BME280;12598;62.382;17.344;2022-09-12T02:31:02;101375.59;;;24.70;29.69
13478;BME280;12598;62.382;17.344;2022-09-12T02:33:23;101383.66;;;24.78;30.06
13478;BME280;12598;62.382;17.344;2022-09-12T02:34:50;101383.31;;;24.81;29.65
13478;BME280;12598;62.382;17.344;2022-09-12T02:36:11;101367.63;;;24.77;29.68
13478;BME280;12598;62.382;17.344;2022-09-12T02:40:01;101385.50;;;24.86;29.18
13478;BME280;12598;62.382;17.344;2022-09-12T02:41:03;101360.22;;;24.71;29.93
13478;BME280;12598;62.382;17.344;2022-09-12T02:42:04;101372.19;;;24.76;29.39
13478;BME280;12598;62.382;17.344;2022-09-12T02:43:06;101372.38;;;24.75;29.57
13478;BME280;12598;62.382;17.344;2022-09-12T02:44:08;101377.13;;;24.73;29.97
13478;BME280;12598;62.382;17.344;2022-09-12T02:45:10;101378.97;;;24.72;30.13
13478;BME280;12598;62.382;17.344;2022-09-12T02:46:19;101373.06;;;24.69;29.78
13478;BME280;12598;62.382;17.344;2022-09-12T02:47:30;101374.41;;;24.73;29.49
13478;BME280;12598;62.382;17.344;2022-09-12T02:48:38;101365.97;;;24.68;29.74
13478;BME280;12598;62.382;17.344;2022-09-12T02:49:42;101363.09;;;24.69;30.00
13478;BME280;12598;62.382;17.344;2022-09-12T02:50:44;101357.16;;;24.66;29.64
13478;BME280;12598;62.382;17.344;2022-09-12T02:51:47;101370.19;;;24.70;29.99
13478;BME280;12598;62.382;17.344;2022-09-12T02:52:50;101362.25;;;24.69;29.94
13478;BME280;12598;62.382;17.344;2022-09-12T02:53:54;101354.16;;;24.61;29.98
13478;BME280;12598;62.382;17.344;2022-09-12T02:54:57;101368.50;;;24.69;29.87
13478;BME280;12598;62.382;17.344;2022-09-12T02:56:00;101368.50;;;24.69;30.20
13478;BME280;12598;62.382;17.344;2022-09-12T02:57:02;101366.66;;;24.70;29.80
13478;BME280;12598;62.382;17.344;2022-09-12T02:58:07;101363.44;;;24.66;29.86
13478;BME280;12598;62.382;17.344;2022-09-12T02:59:14;101358.19;;;24.65;29.90
13478;BME280;12598;62.382;17.344;2022-09-12T03:00:18;101363.94;;;24.70;30.05
13478;BME280;12598;62.382;17.344;2022-09-12T03:03:12;101354.75;;;24.79;29.35
13478;BME280;12598;62.382;17.344;2022-09-12T03:05:54;101350.38;;;24.78;29.86
13478;BME280;12598;62.382;17.344;2022-09-12T03:09:42;101354.75;;;24.79;29.57
13478;BME280;12598;62.382;17.344;2022-09-12T03:12:50;101325.44;;;24.60;29.46
13478;BME280;12598;62.382;17.344;2022-09-12T03:16:49;101354.56;;;24.80;29.55
13478;BME280;12598;62.382;17.344;2022-09-12T03:21:34;101352.56;;;24.74;29.59
13478;BME280;12598;62.382;17.344;2022-09-12T03:22:51;101356.50;;;24.72;29.65
13478;BME280;12598;62.382;17.344;2022-09-12T03:24:12;101349.72;;;24.76;29.43
13478;BME280;12598;62.382;17.344;2022-09-12T03:25:21;101352.78;;;24.73;29.59
13478;BME280;12598;62.382;17.344;2022-09-12T03:26:38;101353.94;;;24.70;30.08
13478;BME280;12598;62.382;17.344;2022-09-12T03:28:51;101351.75;;;24.66;29.64
13478;BME280;12598;62.382;17.344;2022-09-12T03:29:55;101342.31;;;24.62;30.03
13478;BME280;12598;62.382;17.344;2022-09-12T03:30:58;101343.66;;;24.66;29.83
13478;BME280;12598;62.382;17.344;2022-09-12T03:32:00;101347.56;;;24.63;30.38
13478;BME280;12598;62.382;17.344;2022-09-12T03:33:02;101351.28;;;24.62;29.65
13478;BME280;12598;62.382;17.344;2022-09-12T03:34:03;101341.28;;;24.63;30.28
13478;BME280;12598;62.382;17.344;2022-09-12T03:35:06;101350.44;;;24.62;30.20
13478;BME280;12598;62.382;17.344;2022-09-12T03:36:21;101335.22;;;24.61;29.96
13478;BME280;12598;62.382;17.344;2022-09-12T03:37:24;101331.50;;;24.62;29.89
13478;BME280;12598;62.382;17.344;2022-09-12T03:38:26;101332.53;;;24.61;30.26
13478;BME280;12598;62.382;17.344;2022-09-12T03:39:27;101334.22;;;24.62;29.63
13478;BME280;12598;62.382;17.344;2022-09-12T03:40:29;101331.84;;;24.59;29.95
13478;BME280;12598;62.382;17.344;2022-09-12T03:41:31;101336.09;;;24.61;30.03
13478;BME280;12598;62.382;17.344;2022-09-12T03:42:33;101331.50;;;24.62;29.91
13478;BME280;12598;62.382;17.344;2022-09-12T03:43:35;101326.28;;;24.60;30.35
13478;BME280;12598;62.382;17.344;2022-09-12T03:44:36;101332.53;;;24.61;29.74
13478;BME280;12598;62.382;17.344;2022-09-12T03:45:38;101336.25;;;24.60;30.27
13478;BME280;12598;62.382;17.344;2022-09-12T03:46:40;101333.53;;;24.60;30.45
13478;BME280;12598;62.382;17.344;2022-09-12T03:47:42;101333.53;;;24.60;30.44
13478;BME280;12598;62.382;17.344;2022-09-12T03:48:43;101339.97;;;24.59;29.66
13478;BME280;12598;62.382;17.344;2022-09-12T03:49:45;101330.00;;;24.59;29.80
13478;BME280;12598;62.382;17.344;2022-09-12T03:50:47;101343.34;;;24.61;29.79
13478;BME280;12598;62.382;17.344;2022-09-12T03:51:49;101333.53;;;24.60;30.17
13478;BME280;12598;62.382;17.344;2022-09-12T03:52:51;101333.53;;;24.60;30.16
13478;BME280;12598;62.382;17.344;2022-09-12T03:53:53;101331.84;;;24.59;30.57
13478;BME280;12598;62.382;17.344;2022-09-12T03:54:54;101336.25;;;24.60;29.91
13478;BME280;12598;62.382;17.344;2022-09-12T03:55:57;101327.00;;;24.54;30.25
13478;BME280;12598;62.382;17.344;2022-09-12T03:56:58;101337.25;;;24.59;30.29
13478;BME280;12598;62.382;17.344;2022-09-12T03:58:00;101334.75;;;24.57;30.21
13478;BME280;12598;62.382;17.344;2022-09-12T03:59:06;101332.88;;;24.58;30.28
13478;BME280;12598;62.382;17.344;2022-09-12T04:00:08;101324.81;;;24.50;30.31
13478;BME280;12598;62.382;17.344;2022-09-12T04:01:18;101337.94;;;24.61;30.35
13478;BME280;12598;62.382;17.344;2022-09-12T04:02:20;101337.94;;;24.61;30.04
13478;BME280;12598;62.382;17.344;2022-09-12T04:03:22;101337.09;;;24.60;29.97
13478;BME280;12598;62.382;17.344;2022-09-12T04:04:23;101341.66;;;24.60;30.43
13478;BME280;12598;62.382;17.344;2022-09-12T04:05:25;101335.59;;;24.58;29.88
13478;BME280;12598;62.382;17.344;2022-09-12T04:06:27;101334.56;;;24.59;30.21
13478;BME280;12598;62.382;17.344;2022-09-12T04:07:29;101345.38;;;24.59;29.81
13478;BME280;12598;62.382;17.344;2022-09-12T04:08:31;101339.97;;;24.59;30.30
13478;BME280;12598;62.382;17.344;2022-09-12T04:09:32;101340.81;;;24.59;29.92
13478;BME280;12598;62.382;17.344;2022-09-12T04:10:34;101341.00;;;24.58;30.36
13478;BME280;12598;62.382;17.344;2022-09-12T04:11:36;101339.13;;;24.58;30.43
13478;BME280;12598;62.382;17.344;2022-09-12T04:12:38;101338.28;;;24.58;30.36
13478;BME280;12598;62.382;17.344;2022-09-12T04:13:41;101325.31;;;24.53;29.99
13478;BME280;12598;62.382;17.344;2022-09-12T04:14:43;101326.50;;;24.51;30.01
13478;BME280;12598;62.382;17.344;2022-09-12T04:15:55;101338.94;;;24.60;30.31
13478;BME280;12598;62.382;17.344;2022-09-12T04:16:57;101329.81;;;24.61;29.93
13478;BME280;12598;62.382;17.344;2022-09-12T04:17:59;101336.25;;;24.60;30.18
13478;BME280;12598;62.382;17.344;2022-09-12T04:19:06;101336.44;;;24.58;29.99
13478;BME280;12598;62.382;17.344;2022-09-12T04:20:08;101339.97;;;24.59;30.49
13478;BME280;12598;62.382;17.344;2022-09-12T04:21:13;101338.28;;;24.58;30.01
13478;BME280;12598;62.382;17.344;2022-09-12T04:22:16;101341.66;;;24.60;30.36
13478;BME280;12598;62.382;17.344;2022-09-12T04:23:18;101333.44;;;24.53;30.10
13478;BME280;12598;62.382;17.344;2022-09-12T04:24:20;101338.28;;;24.58;29.80
13478;BME280;12598;62.382;17.344;2022-09-12T04:25:22;101332.88;;;24.58;30.31
13478;BME280;12598;62.382;17.344;2022-09-12T04:26:24;101345.56;;;24.57;30.54
13478;BME280;12598;62.382;17.344;2022-09-12T04:27:26;101333.91;;;24.57;30.46
13478;BME280;12598;62.382;17.344;2022-09-12T04:28:28;101333.59;;;24.52;30.39
13478;BME280;12598;62.382;17.344;2022-09-12T04:29:30;101331.06;;;24.50;30.29
13478;BME280;12598;62.382;17.344;2022-09-12T04:30:33;101340.31;;;24.56;30.16
13478;BME280;12598;62.382;17.344;2022-09-12T04:31:35;101347.41;;;24.57;30.52
13478;BME280;12598;62.382;17.344;2022-09-12T04:32:36;101347.41;;;24.57;30.53
13478;BME280;12598;62.382;17.344;2022-09-12T04:33:38;101323.44;;;24.46;29.77
13478;BME280;12598;62.382;17.344;2022-09-12T04:34:40;101332.75;;;24.51;30.11
13478;BME280;12598;62.382;17.344;2022-09-12T04:35:42;101330.22;;;24.50;30.14
13478;BME280;12598;62.382;17.344;2022-09-12T04:36:44;101340.31;;;24.56;30.03
13478;BME280;12598;62.382;17.344;2022-09-12T04:37:45;101345.72;;;24.56;30.57
13478;BME280;12598;62.382;17.344;2022-09-12T04:38:48;101341.34;;;24.55;29.99
13478;BME280;12598;62.382;17.344;2022-09-12T04:39:50;101338.63;;;24.55;30.00
13478;BME280;12598;62.382;17.344;2022-09-12T04:40:52;101338.63;;;24.55;29.92
13478;BME280;12598;62.382;17.344;2022-09-12T04:41:54;101338.63;;;24.55;30.11
13478;BME280;12598;62.382;17.344;2022-09-12T04:42:56;101344.91;;;24.55;30.26
13478;BME280;12598;62.382;17.344;2022-09-12T04:44:00;101344.25;;;24.53;30.56
13478;BME280;12598;62.382;17.344;2022-09-12T04:45:03;101340.31;;;24.56;30.21
13478;BME280;12598;62.382;17.344;2022-09-12T04:46:08;101346.75;;;24.55;29.86
13478;BME280;12598;62.382;17.344;2022-09-12T04:47:10;101340.31;;;24.56;30.40
13478;BME280;12598;62.382;17.344;2022-09-12T04:48:12;101337.63;;;24.56;30.26
13478;BME280;12598;62.382;17.344;2022-09-12T04:49:14;101325.13;;;24.47;30.26
13478;BME280;12598;62.382;17.344;2022-09-12T04:50:19;101339.50;;;24.55;30.53
13478;BME280;12598;62.382;17.344;2022-09-12T04:51:32;101334.44;;;24.52;30.37
13478;BME280;12598;62.382;17.344;2022-09-12T04:52:36;101335.59;;;24.58;30.40
13478;BME280;12598;62.382;17.344;2022-09-12T04:53:38;101330.53;;;24.55;30.35
13478;BME280;12598;62.382;17.344;2022-09-12T04:54:40;101298.47;;;24.36;30.04
13478;BME280;12598;62.382;17.344;2022-09-12T04:55:42;101317.38;;;24.44;30.23
13478;BME280;12598;62.382;17.344;2022-09-12T04:56:45;101330.53;;;24.55;30.27
13478;BME280;12598;62.382;17.344;2022-09-12T04:57:47;101332.41;;;24.54;30.14
13478;BME280;12598;62.382;17.344;2022-09-12T04:58:49;101334.25;;;24.54;30.03
13478;BME280;12598;62.382;17.344;2022-09-12T04:59:51;101336.78;;;24.55;30.59
13478;BME280;12598;62.382;17.344;2022-09-12T05:00:53;101341.34;;;24.55;30.02
13478;BME280;12598;62.382;17.344;2022-09-12T05:01:55;101317.38;;;24.44;30.43
13478;BME280;12598;62.382;17.344;2022-09-12T05:02:56;101320.41;;;24.41;30.39
13478;BME280;12598;62.382;17.344;2022-09-12T05:03:58;101335.25;;;24.53;30.22
13478;BME280;12598;62.382;17.344;2022-09-12T05:05:00;101326.16;;;24.46;30.35
13478;BME280;12598;62.382;17.344;2022-09-12T05:06:02;101320.06;;;24.44;30.39
13478;BME280;12598;62.382;17.344;2022-09-12T05:07:04;101339.84;;;24.52;30.70
13478;BME280;12598;62.382;17.344;2022-09-12T05:08:06;101333.59;;;24.52;30.15
13478;BME280;12598;62.382;17.344;2022-09-12T05:09:12;101321.25;;;24.41;30.12
13478;BME280;12598;62.382;17.344;2022-09-12T05:10:14;101325.78;;;24.49;30.30
13478;BME280;12598;62.382;17.344;2022-09-12T05:11:20;101337.63;;;24.56;30.48
13478;BME280;12598;62.382;17.344;2022-09-12T05:12:29;101334.56;;;24.59;30.57
13478;BME280;12598;62.382;17.344;2022-09-12T05:13:32;101337.09;;;24.60;30.33
13478;BME280;12598;62.382;17.344;2022-09-12T05:14:34;101332.53;;;24.61;30.58
13478;BME280;12598;62.382;17.344;2022-09-12T05:15:36;101333.19;;;24.63;30.20
13478;BME280;12598;62.382;17.344;2022-09-12T05:16:38;101336.56;;;24.65;30.43
13478;BME280;12598;62.382;17.344;2022-09-12T05:17:41;101324.59;;;24.59;30.29
13478;BME280;12598;62.382;17.344;2022-09-12T05:18:44;101333.53;;;24.68;30.13
13478;BME280;12598;62.382;17.344;2022-09-12T05:19:47;101318.66;;;24.64;30.42
13478;BME280;12598;62.382;17.344;2022-09-12T05:20:49;101323.69;;;24.75;30.06
13478;BME280;12598;62.382;17.344;2022-09-12T05:21:51;101307.66;;;24.65;30.01
13478;BME280;12598;62.382;17.344;2022-09-12T05:22:52;101311.19;;;24.74;30.26
13478;BME280;12598;62.382;17.344;2022-09-12T05:23:57;101323.44;;;24.84;29.77
13478;BME280;12598;62.382;17.344;2022-09-12T05:25:00;101316.84;;;24.87;29.71
13478;BME280;12598;62.382;17.344;2022-09-12T05:26:04;101308.22;;;24.83;29.83
13478;BME280;12598;62.382;17.344;2022-09-12T05:27:06;101328.63;;;24.94;30.00
13478;BME280;12598;62.382;17.344;2022-09-12T05:28:08;101322.03;;;24.96;29.81
13478;BME280;12598;62.382;17.344;2022-09-12T05:29:09;101305.66;;;24.90;29.68
13478;BME280;12598;62.382;17.344;2022-09-12T05:30:12;101325.19;;;25.00;29.70
13478;BME280;12598;62.382;17.344;2022-09-12T05:31:19;101323.66;;;25.05;29.54
13478;BME280;12598;62.382;17.344;2022-09-12T05:32:21;101318.41;;;25.04;29.48
13478;BME280;12598;62.382;17.344;2022-09-12T05:33:22;101329.88;;;25.14;29.43
13478;BME280;12598;62.382;17.344;2022-09-12T05:34:25;101311.44;;;25.09;29.12
13478;BME280;12598;62.382;17.344;2022-09-12T05:35:28;101323.75;;;25.20;29.63
13478;BME280;12598;62.382;17.344;2022-09-12T05:36:30;101321.72;;;25.22;29.30
13478;BME280;12598;62.382;17.344;2022-09-12T05:37:32;101323.03;;;25.26;29.08
13478;BME280;12598;62.382;17.344;2022-09-12T05:38:34;101324.53;;;25.28;29.01
13478;BME280;12598;62.382;17.344;2022-09-12T05:39:36;101320.78;;;25.29;29.21
13478;BME280;12598;62.382;17.344;2022-09-12T05:40:37;101304.44;;;25.23;29.04
13478;BME280;12598;62.382;17.344;2022-09-12T05:41:39;101318.22;;;25.36;28.65
13478;BME280;12598;62.382;17.344;2022-09-12T05:42:41;101320.56;;;25.39;29.23
13478;BME280;12598;62.382;17.344;2022-09-12T05:43:43;101318.50;;;25.41;28.97
13478;BME280;12598;62.382;17.344;2022-09-12T05:44:45;101310.88;;;25.44;28.87
13478;BME280;12598;62.382;17.344;2022-09-12T05:45:47;101312.25;;;25.40;29.05
13478;BME280;12598;62.382;17.344;2022-09-12T05:46:49;101312.19;;;25.48;28.46
13478;BME280;12598;62.382;17.344;2022-09-12T05:47:52;101316.59;;;25.49;28.89
13478;BME280;12598;62.382;17.344;2022-09-12T05:49:07;101303.22;;;25.48;28.73
13478;BME280;12598;62.382;17.344;2022-09-12T05:50:09;101310.06;;;25.58;28.69
13478;BME280;12598;62.382;17.344;2022-09-12T05:51:14;101315.47;;;25.58;28.62
13478;BME280;12598;62.382;17.344;2022-09-12T05:52:19;101318.69;;;25.62;28.56
13478;BME280;12598;62.382;17.344;2022-09-12T05:53:21;101315.31;;;25.60;28.41
13478;BME280;12598;62.382;17.344;2022-09-12T05:54:23;101311.28;;;25.56;28.56
13478;BME280;12598;62.382;17.344;2022-09-12T05:55:31;101315.41;;;25.66;28.74
13478;BME280;12598;62.382;17.344;2022-09-12T05:56:37;101323.53;;;25.66;28.25
13478;BME280;12598;62.382;17.344;2022-09-12T05:57:43;101317.94;;;25.67;28.28
13478;BME280;12598;62.382;17.344;2022-09-12T05:58:53;101311.50;;;25.68;28.38
13478;BME280;12598;62.382;17.344;2022-09-12T05:59:55;101311.94;;;25.72;28.29
13478;BME280;12598;62.382;17.344;2022-09-12T06:01:04;101313.84;;;25.71;28.72
13478;BME280;12598;62.382;17.344;2022-09-12T06:02:09;101301.69;;;25.67;28.64
13478;BME280;12598;62.382;17.344;2022-09-12T06:03:11;101300.00;;;25.66;28.36
13478;BME280;12598;62.382;17.344;2022-09-12T06:04:13;101313.47;;;25.74;28.40
13478;BME280;12598;62.382;17.344;2022-09-12T06:05:15;101308.78;;;25.68;28.29
13478;BME280;12598;62.382;17.344;2022-09-12T06:06:20;101318.88;;;25.74;28.41
13478;BME280;12598;62.382;17.344;2022-09-12T06:07:22;101304.03;;;25.70;28.48
13478;BME280;12598;62.382;17.344;2022-09-12T06:08:23;101312.81;;;25.72;28.63
13478;BME280;12598;62.382;17.344;2022-09-12T06:09:25;101306.00;;;25.76;28.56
13478;BME280;12598;62.382;17.344;2022-09-12T06:10:28;101302.13;;;25.71;28.16
13478;BME280;12598;62.382;17.344;2022-09-12T06:11:32;101317.69;;;25.77;28.36
13478;BME280;12598;62.382;17.344;2022-09-12T06:12:34;101316.47;;;25.79;28.24
13478;BME280;12598;62.382;17.344;2022-09-12T06:13:37;101303.13;;;25.78;28.29